sensor_id;sensor_type;location;lat;lon;timestamp;pressure;altitude;pressure_sealevel;temperature
79228;BMP280;68658;46.174;11.254;2023-05-10T00:01:27;92293.03;;;12.12
79228;BMP280;68658;46.174;11.254;2023-05-10T00:03:53;92288.94;;;12.11
79228;BMP280;68658;46.174;11.254;2023-05-10T00:06:19;92291.38;;;12.09
79228;BMP280;68658;46.174;11.254;2023-05-10T00:08:45;92284.38;;;12.11
79228;BMP280;68658;46.174;11.254;2023-05-10T00:11:11;92276.22;;;12.09
79228;BMP280;68658;46.174;11.254;2023-05-10T00:13:36;92282.66;;;12.14
79228;BMP280;68658;46.174;11.254;2023-05-10T00:16:02;92284.72;;;11.84
79228;BMP280;68658;46.174;11.254;2023-05-10T00:18:27;92276.06;;;11.83
79228;BMP280;68658;46.174;11.254;2023-05-10T00:20:53;92275.94;;;11.76
79228;BMP280;68658;46.174;11.254;2023-05-10T00:23:18;92270.50;;;11.87
79228;BMP280;68658;46.174;11.254;2023-05-10T00:25:44;92268.88;;;11.84
79228;BMP280;68658;46.174;11.254;2023-05-10T00:28:10;92264.00;;;11.88
79228;BMP280;68658;46.174;11.254;2023-05-10T00:30:35;92266.06;;;11.95
79228;BMP280;68658;46.174;11.254;2023-05-10T00:33:01;92264.22;;;11.90
79228;BMP280;68658;46.174;11.254;2023-05-10T00:35:26;92259.78;;;11.98
79228;BMP280;68658;46.174;11.254;2023-05-10T00:37:52;92258.34;;;11.97
79228;BMP280;68658;46.174;11.254;2023-05-10T00:40:17;92257.38;;;12.00
79228;BMP280;68658;46.174;11.254;2023-05-10T00:42:43;92253.06;;;11.97
79228;BMP280;68658;46.174;11.254;2023-05-10T00:45:09;92256.34;;;12.03
79228;BMP280;68658;46.174;11.254;2023-05-10T00:47:34;92245.75;;;12.03
79228;BMP280;68658;46.174;11.254;2023-05-10T00:50:00;92245.47;;;12.06
79228;BMP280;68658;46.174;11.254;2023-05-10T00:52:27;92250.63;;;11.99
79228;BMP280;68658;46.174;11.254;2023-05-10T00:54:53;92241.03;;;11.96
79228;BMP280;68658;46.174;11.254;2023-05-10T00:57:19;92247.13;;;11.91
79228;BMP280;68658;46.174;11.254;2023-05-10T00:59:45;92241.34;;;11.74
79228;BMP280;68658;46.174;11.254;2023-05-10T01:02:11;92239.19;;;11.72
79228;BMP280;68658;46.174;11.254;2023-05-10T01:04:38;92233.63;;;11.76
79228;BMP280;68658;46.174;11.254;2023-05-10T01:07:05;92236.91;;;11.82
79228;BMP280;68658;46.174;11.254;2023-05-10T01:09:30;92231.63;;;11.82
79228;BMP280;68658;46.174;11.254;2023-05-10T01:11:57;92228.56;;;11.78
79228;BMP280;68658;46.174;11.254;2023-05-10T01:14:24;92230.19;;;11.81
79228;BMP280;68658;46.174;11.254;2023-05-10T01:16:50;92228.91;;;11.87
79228;BMP280;68658;46.174;11.254;2023-05-10T01:25:00;92226.25;;;11.87
79228;BMP280;68658;46.174;11.254;2023-05-10T01:30:35;92231.25;;;11.72
79228;BMP280;68658;46.174;11.254;2023-05-10T01:33:17;92225.63;;;11.63
79228;BMP280;68658;46.174;11.254;2023-05-10T01:35:51;92221.53;;;11.62
79228;BMP280;68658;46.174;11.254;2023-05-10T01:38:29;92219.88;;;11.59
79228;BMP280;68658;46.174;11.254;2023-05-10T01:41:09;92224.94;;;11.57
79228;BMP280;68658;46.174;11.254;2023-05-10T01:43:45;92219.66;;;11.57
79228;BMP280;68658;46.174;11.254;2023-05-10T01:46:28;92210.13;;;11.49
79228;BMP280;68658;46.174;11.254;2023-05-10T01:48:58;92217.53;;;11.56
79228;BMP280;68658;46.174;11.254;2023-05-10T01:51:27;92222.53;;;11.59
79228;BMP280;68658;46.174;11.254;2023-05-10T01:53:58;92219.19;;;11.58
79228;BMP280;68658;46.174;11.254;2023-05-10T01:56:26;92220.88;;;11.56
79228;BMP280;68658;46.174;11.254;2023-05-10T01:58:53;92217.13;;;11.46
79228;BMP280;68658;46.174;11.254;2023-05-10T02:01:21;92220.81;;;11.38
79228;BMP280;68658;46.174;11.254;2023-05-10T02:03:48;92212.84;;;11.43
79228;BMP280;68658;46.174;11.254;2023-05-10T02:06:16;92221.28;;;11.42
79228;BMP280;68658;46.174;11.254;2023-05-10T02:08:45;92216.50;;;11.40
79228;BMP280;68658;46.174;11.254;2023-05-10T02:11:13;92208.75;;;11.42
79228;BMP280;68658;46.174;11.254;2023-05-10T02:13:39;92219.75;;;11.28
79228;BMP280;68658;46.174;11.254;2023-05-10T02:16:06;92219.19;;;11.35
79228;BMP280;68658;46.174;11.254;2023-05-10T02:18:34;92214.59;;;11.35
79228;BMP280;68658;46.174;11.254;2023-05-10T02:21:02;92213.69;;;11.33
79228;BMP280;68658;46.174;11.254;2023-05-10T02:23:28;92212.31;;;11.26
79228;BMP280;68658;46.174;11.254;2023-05-10T02:25:55;92210.09;;;11.30
79228;BMP280;68658;46.174;11.254;2023-05-10T02:28:23;92212.25;;;11.32
79228;BMP280;68658;46.174;11.254;2023-05-10T02:30:51;92214.47;;;11.28
79228;BMP280;68658;46.174;11.254;2023-05-10T02:33:17;92216.81;;;11.31
79228;BMP280;68658;46.174;11.254;2023-05-10T02:35:43;92210.34;;;11.32
79228;BMP280;68658;46.174;11.254;2023-05-10T02:38:10;92207.88;;;11.34
79228;BMP280;68658;46.174;11.254;2023-05-10T02:40:37;92205.88;;;11.22
79228;BMP280;68658;46.174;11.254;2023-05-10T02:43:05;92205.38;;;11.23
79228;BMP280;68658;46.174;11.254;2023-05-10T02:45:32;92207.25;;;11.28
79228;BMP280;68658;46.174;11.254;2023-05-10T02:47:58;92201.25;;;11.28
79228;BMP280;68658;46.174;11.254;2023-05-10T02:50:27;92199.09;;;11.26
79228;BMP280;68658;46.174;11.254;2023-05-10T02:52:57;92202.66;;;11.10
79228;BMP280;68658;46.174;11.254;2023-05-10T02:55:26;92206.22;;;10.89
79228;BMP280;68658;46.174;11.254;2023-05-10T02:58:00;92199.88;;;10.97
79228;BMP280;68658;46.174;11.254;2023-05-10T03:00:26;92200.56;;;11.03
79228;BMP280;68658;46.174;11.254;2023-05-10T03:02:52;92198.06;;;11.11
79228;BMP280;68658;46.174;11.254;2023-05-10T03:05:18;92201.66;;;11.13
79228;BMP280;68658;46.174;11.254;2023-05-10T03:07:44;92202.66;;;11.10
79228;BMP280;68658;46.174;11.254;2023-05-10T03:10:10;92201.66;;;11.13
79228;BMP280;68658;46.174;11.254;2023-05-10T03:18:09;92204.28;;;10.89
79228;BMP280;68658;46.174;11.254;2023-05-10T03:20:39;92198.44;;;10.96
79228;BMP280;68658;46.174;11.254;2023-05-10T03:25:48;92193.94;;;10.91
79228;BMP280;68658;46.174;11.254;2023-05-10T03:28:16;92192.09;;;10.86
79228;BMP280;68658;46.174;11.254;2023-05-10T03:30:43;92195.00;;;10.83
79228;BMP280;68658;46.174;11.254;2023-05-10T03:33:10;92193.44;;;10.93
79228;BMP280;68658;46.174;11.254;2023-05-10T03:35:38;92193.69;;;10.95
79228;BMP280;68658;46.174;11.254;2023-05-10T03:38:07;92200.38;;;10.96
79228;BMP280;68658;46.174;11.254;2023-05-10T03:40:33;92192.66;;;11.03
79228;BMP280;68658;46.174;11.254;2023-05-10T03:42:59;92195.47;;;11.05
79228;BMP280;68658;46.174;11.254;2023-05-10T03:45:25;92187.34;;;11.03
79228;BMP280;68658;46.174;11.254;2023-05-10T03:47:50;92190.72;;;11.04
79228;BMP280;68658;46.174;11.254;2023-05-10T03:50:16;92188.28;;;11.06
79228;BMP280;68658;46.174;11.254;2023-05-10T03:52:41;92195.47;;;11.05
79228;BMP280;68658;46.174;11.254;2023-05-10T03:55:07;92189.72;;;11.07
79228;BMP280;68658;46.174;11.254;2023-05-10T03:57:33;92191.63;;;11.06
79228;BMP280;68658;46.174;11.254;2023-05-10T03:59:59;92192.84;;;11.05
79228;BMP280;68658;46.174;11.254;2023-05-10T04:02:25;92192.91;;;11.00
79228;BMP280;68658;46.174;11.254;2023-05-10T04:04:50;92200.75;;;11.05
79228;BMP280;68658;46.174;11.254;2023-05-10T04:07:16;92198.91;;;11.00
79228;BMP280;68658;46.174;11.254;2023-05-10T04:09:43;92189.31;;;10.97
79228;BMP280;68658;46.174;11.254;2023-05-10T04:12:09;92188.34;;;11.00
79228;BMP280;68658;46.174;11.254;2023-05-10T04:14:35;92192.53;;;10.90
79228;BMP280;68658;46.174;11.254;2023-05-10T04:17:01;92191.03;;;10.95
79228;BMP280;68658;46.174;11.254;2023-05-10T04:19:31;92186.63;;;11.03
79228;BMP280;68658;46.174;11.254;2023-05-10T04:21:57;92191.97;;;10.97
79228;BMP280;68658;46.174;11.254;2023-05-10T04:24:23;92189.88;;;10.90
79228;BMP280;68658;46.174;11.254;2023-05-10T04:26:49;92195.28;;;10.79
79228;BMP280;68658;46.174;11.254;2023-05-10T04:29:14;92192.84;;;10.81
79228;BMP280;68658;46.174;11.254;2023-05-10T04:31:39;92192.75;;;10.92
79228;BMP280;68658;46.174;11.254;2023-05-10T04:34:05;92192.22;;;10.70
79228;BMP280;68658;46.174;11.254;2023-05-10T04:36:31;92189.72;;;10.83
79228;BMP280;68658;46.174;11.254;2023-05-10T04:38:59;92191.09;;;10.89
79228;BMP280;68658;46.174;11.254;2023-05-10T04:41:24;92194.69;;;10.92
79228;BMP280;68658;46.174;11.254;2023-05-10T04:43:50;92208.34;;;10.67
79228;BMP280;68658;46.174;11.254;2023-05-10T04:46:16;92200.56;;;10.79
79228;BMP280;68658;46.174;11.254;2023-05-10T04:48:41;92191.88;;;10.84
79228;BMP280;68658;46.174;11.254;2023-05-10T04:51:07;92196.16;;;10.87
79228;BMP280;68658;46.174;11.254;2023-05-10T04:53:32;92194.97;;;10.88
79228;BMP280;68658;46.174;11.254;2023-05-10T04:55:58;92195.16;;;10.90
79228;BMP280;68658;46.174;11.254;2023-05-10T04:58:23;92201.66;;;10.89
79228;BMP280;68658;46.174;11.254;2023-05-10T05:00:49;92199.00;;;10.89
79228;BMP280;68658;46.174;11.254;2023-05-10T05:03:14;92197.41;;;10.81
79228;BMP280;68658;46.174;11.254;2023-05-10T05:05:40;92198.13;;;10.81
79228;BMP280;68658;46.174;11.254;2023-05-10T05:08:06;92206.66;;;10.69
79228;BMP280;68658;46.174;11.254;2023-05-10T05:10:34;92207.06;;;10.78
79228;BMP280;68658;46.174;11.254;2023-05-10T05:13:03;92205.56;;;10.83
79228;BMP280;68658;46.174;11.254;2023-05-10T05:15:29;92200.25;;;10.88
79228;BMP280;68658;46.174;11.254;2023-05-10T05:17:56;92206.53;;;10.80
79228;BMP280;68658;46.174;11.254;2023-05-10T05:20:22;92204.38;;;10.84
79228;BMP280;68658;46.174;11.254;2023-05-10T05:22:48;92197.59;;;10.88
79228;BMP280;68658;46.174;11.254;2023-05-10T05:25:14;92201.66;;;10.89
79228;BMP280;68658;46.174;11.254;2023-05-10T05:27:41;92198.72;;;10.93
79228;BMP280;68658;46.174;11.254;2023-05-10T05:30:07;92198.25;;;10.94
79228;BMP280;68658;46.174;11.254;2023-05-10T05:32:36;92207.44;;;10.88
79228;BMP280;68658;46.174;11.254;2023-05-10T05:35:02;92200.56;;;10.79
79228;BMP280;68658;46.174;11.254;2023-05-10T05:37:28;92203.84;;;10.85
79228;BMP280;68658;46.174;11.254;2023-05-10T05:39:54;92202.19;;;10.82
79228;BMP280;68658;46.174;11.254;2023-05-10T05:42:20;92202.75;;;10.76
79228;BMP280;68658;46.174;11.254;2023-05-10T05:44:46;92204.13;;;10.82
79228;BMP280;68658;46.174;11.254;2023-05-10T05:47:11;92209.78;;;10.91
79228;BMP280;68658;46.174;11.254;2023-05-10T05:49:37;92209.56;;;10.89
79228;BMP280;68658;46.174;11.254;2023-05-10T05:52:03;92207.00;;;10.84
79228;BMP280;68658;46.174;11.254;2023-05-10T05:54:30;92204.19;;;10.77
79228;BMP280;68658;46.174;11.254;2023-05-10T05:56:59;92211.56;;;10.83
79228;BMP280;68658;46.174;11.254;2023-05-10T05:59:26;92210.31;;;10.90
79228;BMP280;68658;46.174;11.254;2023-05-10T06:01:52;92215.53;;;10.95
79228;BMP280;68658;46.174;11.254;2023-05-10T06:04:18;92207.63;;;10.95
79228;BMP280;68658;46.174;11.254;2023-05-10T06:06:44;92213.66;;;10.90
79228;BMP280;68658;46.174;11.254;2023-05-10T06:09:10;92212.09;;;10.77
79228;BMP280;68658;46.174;11.254;2023-05-10T06:11:36;92215.91;;;10.81
79228;BMP280;68658;46.174;11.254;2023-05-10T06:14:02;92216.13;;;10.83
79228;BMP280;68658;46.174;11.254;2023-05-10T06:16:30;92215.59;;;10.90
79228;BMP280;68658;46.174;11.254;2023-05-10T06:18:55;92223.47;;;10.95
79228;BMP280;68658;46.174;11.254;2023-05-10T06:21:21;92224.22;;;10.90
79228;BMP280;68658;46.174;11.254;2023-05-10T06:23:47;92225.88;;;10.93
79228;BMP280;68658;46.174;11.254;2023-05-10T06:26:12;92222.03;;;10.94
79228;BMP280;68658;46.174;11.254;2023-05-10T06:28:39;92216.00;;;10.94
79228;BMP280;68658;46.174;11.254;2023-05-10T06:31:05;92224.66;;;10.94
79228;BMP280;68658;46.174;11.254;2023-05-10T06:33:31;92225.31;;;11.00
79228;BMP280;68658;46.174;11.254;2023-05-10T06:35:57;92223.88;;;10.99
79228;BMP280;68658;46.174;11.254;2023-05-10T06:38:22;92224.94;;;10.91
79228;BMP280;68658;46.174;11.254;2023-05-10T06:40:48;92234.44;;;10.76
79228;BMP280;68658;46.174;11.254;2023-05-10T06:43:13;92236.31;;;10.80
79228;BMP280;68658;46.174;11.254;2023-05-10T06:45:39;92240.38;;;10.81
79228;BMP280;68658;46.174;11.254;2023-05-10T06:48:06;92232.25;;;10.79
79228;BMP280;68658;46.174;11.254;2023-05-10T06:50:32;92237.06;;;10.76
79228;BMP280;68658;46.174;11.254;2023-05-10T06:52:58;92229.81;;;10.81
79228;BMP280;68658;46.174;11.254;2023-05-10T06:55:25;92242.97;;;10.87
79228;BMP280;68658;46.174;11.254;2023-05-10T06:57:51;92229.28;;;10.88
79228;BMP280;68658;46.174;11.254;2023-05-10T07:00:18;92232.13;;;10.90
79228;BMP280;68658;46.174;11.254;2023-05-10T07:02:43;92234.56;;;10.88
79228;BMP280;68658;46.174;11.254;2023-05-10T07:05:09;92237.25;;;10.83
79228;BMP280;68658;46.174;11.254;2023-05-10T07:07:35;92238.97;;;10.80
79228;BMP280;68658;46.174;11.254;2023-05-10T07:10:01;92229.66;;;10.74
79228;BMP280;68658;46.174;11.254;2023-05-10T07:12:27;92241.97;;;10.66
79228;BMP280;68658;46.174;11.254;2023-05-10T07:14:53;92239.63;;;10.57
79228;BMP280;68658;46.174;11.254;2023-05-10T07:17:19;92239.81;;;10.65
79228;BMP280;68658;46.174;11.254;2023-05-10T07:19:44;92239.75;;;10.70
79228;BMP280;68658;46.174;11.254;2023-05-10T07:22:10;92233.66;;;10.57
79228;BMP280;68658;46.174;11.254;2023-05-10T07:24:35;92238.47;;;10.53
79228;BMP280;68658;46.174;11.254;2023-05-10T07:27:01;92234.31;;;10.63
79228;BMP280;68658;46.174;11.254;2023-05-10T07:29:27;92242.38;;;10.70
79228;BMP280;68658;46.174;11.254;2023-05-10T07:31:54;92237.06;;;10.76
79228;BMP280;68658;46.174;11.254;2023-05-10T07:34:19;92240.47;;;10.71
79228;BMP280;68658;46.174;11.254;2023-05-10T07:36:45;92240.91;;;10.51
79228;BMP280;68658;46.174;11.254;2023-05-10T07:39:11;92234.19;;;10.50
79228;BMP280;68658;46.174;11.254;2023-05-10T07:41:37;92238.53;;;10.47
79228;BMP280;68658;46.174;11.254;2023-05-10T07:44:04;92241.28;;;10.60
79228;BMP280;68658;46.174;11.254;2023-05-10T07:46:30;92235.78;;;10.58
79228;BMP280;68658;46.174;11.254;2023-05-10T07:48:55;92239.13;;;10.59
79228;BMP280;68658;46.174;11.254;2023-05-10T07:51:21;92241.75;;;10.59
79228;BMP280;68658;46.174;11.254;2023-05-10T07:53:49;92241.72;;;10.64
79228;BMP280;68658;46.174;11.254;2023-05-10T07:56:28;92245.19;;;10.54
79228;BMP280;68658;46.174;11.254;2023-05-10T07:59:01;92252.47;;;10.42
79228;BMP280;68658;46.174;11.254;2023-05-10T08:01:30;92250.84;;;10.34
79228;BMP280;68658;46.174;11.254;2023-05-10T08:03:57;92249.31;;;10.44
79228;BMP280;68658;46.174;11.254;2023-05-10T08:06:23;92248.09;;;10.50
79228;BMP280;68658;46.174;11.254;2023-05-10T08:08:51;92247.19;;;10.42
79228;BMP280;68658;46.174;11.254;2023-05-10T08:11:19;92246.22;;;10.45
79228;BMP280;68658;46.174;11.254;2023-05-10T08:13:46;92245.41;;;10.56
79228;BMP280;68658;46.174;11.254;2023-05-10T08:16:13;92242.72;;;10.61
79228;BMP280;68658;46.174;11.254;2023-05-10T08:18:39;92250.56;;;10.67
79228;BMP280;68658;46.174;11.254;2023-05-10T08:21:05;92252.56;;;10.61
79228;BMP280;68658;46.174;11.254;2023-05-10T08:23:32;92257.03;;;10.42
79228;BMP280;68658;46.174;11.254;2023-05-10T08:25:57;92254.28;;;10.53
79228;BMP280;68658;46.174;11.254;2023-05-10T08:28:23;92248.72;;;10.62
79228;BMP280;68658;46.174;11.254;2023-05-10T08:30:50;92253.50;;;10.63
79228;BMP280;68658;46.174;11.254;2023-05-10T08:33:17;92252.00;;;10.68
79228;BMP280;68658;46.174;11.254;2023-05-10T08:35:43;92253.44;;;10.69
79228;BMP280;68658;46.174;11.254;2023-05-10T08:38:09;92257.16;;;10.55
79228;BMP280;68658;46.174;11.254;2023-05-10T08:40:36;92258.34;;;10.59
79228;BMP280;68658;46.174;11.254;2023-05-10T08:43:05;92255.84;;;10.67
79228;BMP280;68658;46.174;11.254;2023-05-10T08:45:35;92253.44;;;10.69
79228;BMP280;68658;46.174;11.254;2023-05-10T08:48:02;92263.25;;;10.74
79228;BMP280;68658;46.174;11.254;2023-05-10T08:50:27;92262.50;;;10.78
79228;BMP280;68658;46.174;11.254;2023-05-10T08:52:55;92264.38;;;10.83
79228;BMP280;68658;46.174;11.254;2023-05-10T08:55:23;92260.78;;;10.81
79228;BMP280;68658;46.174;11.254;2023-05-10T08:57:49;92263.94;;;10.79
79228;BMP280;68658;46.174;11.254;2023-05-10T09:00:15;92263.13;;;10.61
79228;BMP280;68658;46.174;11.254;2023-05-10T09:02:42;92267.63;;;10.36
79228;BMP280;68658;46.174;11.254;2023-05-10T09:05:08;92263.88;;;10.56
79228;BMP280;68658;46.174;11.254;2023-05-10T09:07:35;92259.66;;;10.71
79228;BMP280;68658;46.174;11.254;2023-05-10T09:10:02;92262.72;;;10.80
79228;BMP280;68658;46.174;11.254;2023-05-10T09:12:28;92273.06;;;10.78
79228;BMP280;68658;46.174;11.254;2023-05-10T09:14:54;92272.94;;;10.66
79228;BMP280;68658;46.174;11.254;2023-05-10T09:17:23;92267.75;;;10.49
79228;BMP280;68658;46.174;11.254;2023-05-10T09:20:06;92264.94;;;10.42
79228;BMP280;68658;46.174;11.254;2023-05-10T09:22:34;92276.34;;;10.55
79228;BMP280;68658;46.174;11.254;2023-05-10T09:25:07;92270.63;;;10.51
79228;BMP280;68658;46.174;11.254;2023-05-10T09:27:34;92273.78;;;10.50
79228;BMP280;68658;46.174;11.254;2023-05-10T09:30:00;92280.00;;;10.47
79228;BMP280;68658;46.174;11.254;2023-05-10T09:32:39;92274.31;;;10.43
79228;BMP280;68658;46.174;11.254;2023-05-10T09:35:12;92283.84;;;10.46
79228;BMP280;68658;46.174;11.254;2023-05-10T09:37:44;92284.09;;;10.48
79228;BMP280;68658;46.174;11.254;2023-05-10T09:40:21;92288.06;;;10.60
79228;BMP280;68658;46.174;11.254;2023-05-10T09:45:20;92283.38;;;10.77
79228;BMP280;68658;46.174;11.254;2023-05-10T09:47:46;92280.50;;;10.75
79228;BMP280;68658;46.174;11.254;2023-05-10T09:50:12;92285.59;;;10.73
79228;BMP280;68658;46.174;11.254;2023-05-10T09:52:54;92284.97;;;10.61
79228;BMP280;68658;46.174;11.254;2023-05-10T09:55:22;92282.44;;;10.74
79228;BMP280;68658;46.174;11.254;2023-05-10T09:57:49;92282.97;;;10.96
79228;BMP280;68658;46.174;11.254;2023-05-10T10:00:21;92292.56;;;10.99
79228;BMP280;68658;46.174;11.254;2023-05-10T10:02:53;92279.31;;;11.05
79228;BMP280;68658;46.174;11.254;2023-05-10T10:05:19;92279.81;;;11.03
79228;BMP280;68658;46.174;11.254;2023-05-10T10:07:45;92284.31;;;11.08
79228;BMP280;68658;46.174;11.254;2023-05-10T10:10:14;92278.97;;;11.14
79228;BMP280;68658;46.174;11.254;2023-05-10T10:12:40;92282.31;;;11.14
79228;BMP280;68658;46.174;11.254;2023-05-10T10:15:10;92280.47;;;11.09
79228;BMP280;68658;46.174;11.254;2023-05-10T10:17:37;92278.19;;;11.19
79228;BMP280;68658;46.174;11.254;2023-05-10T10:20:05;92288.28;;;11.20
79228;BMP280;68658;46.174;11.254;2023-05-10T10:22:31;92285.19;;;11.16
79228;BMP280;68658;46.174;11.254;2023-05-10T10:24:57;92276.94;;;11.01
79228;BMP280;68658;46.174;11.254;2023-05-10T10:27:26;92278.09;;;11.06
79228;BMP280;68658;46.174;11.254;2023-05-10T10:32:59;92272.63;;;10.98
79228;BMP280;68658;46.174;11.254;2023-05-10T10:35:29;92260.22;;;11.17
79228;BMP280;68658;46.174;11.254;2023-05-10T10:37:55;92269.94;;;11.28
79228;BMP280;68658;46.174;11.254;2023-05-10T10:42:53;92263.00;;;11.25
79228;BMP280;68658;46.174;11.254;2023-05-10T10:45:19;92259.22;;;11.20
79228;BMP280;68658;46.174;11.254;2023-05-10T10:47:45;92265.69;;;11.43
79228;BMP280;68658;46.174;11.254;2023-05-10T10:50:11;92252.38;;;11.30
79228;BMP280;68658;46.174;11.254;2023-05-10T10:52:42;92259.84;;;11.26
79228;BMP280;68658;46.174;11.254;2023-05-10T10:57:48;92257.34;;;11.39
79228;BMP280;68658;46.174;11.254;2023-05-10T11:07:58;92246.59;;;11.32
79228;BMP280;68658;46.174;11.254;2023-05-10T11:10:25;92242.75;;;11.33
79228;BMP280;68658;46.174;11.254;2023-05-10T11:13:05;92242.78;;;11.51
79228;BMP280;68658;46.174;11.254;2023-05-10T11:15:32;92244.41;;;11.59
79228;BMP280;68658;46.174;11.254;2023-05-10T11:17:58;92244.88;;;11.58
79228;BMP280;68658;46.174;11.254;2023-05-10T11:20:27;92239.41;;;11.32
79228;BMP280;68658;46.174;11.254;2023-05-10T11:23:00;92237.81;;;11.42
79228;BMP280;68658;46.174;11.254;2023-05-10T11:25:41;92241.84;;;11.49
79228;BMP280;68658;46.174;11.254;2023-05-10T11:28:06;92236.19;;;11.63
79228;BMP280;68658;46.174;11.254;2023-05-10T11:30:32;92223.16;;;11.83
79228;BMP280;68658;46.174;11.254;2023-05-10T11:32:58;92232.81;;;11.81
79228;BMP280;68658;46.174;11.254;2023-05-10T11:35:23;92232.03;;;11.67
79228;BMP280;68658;46.174;11.254;2023-05-10T11:37:49;92233.59;;;11.57
79228;BMP280;68658;46.174;11.254;2023-05-10T11:40:14;92229.88;;;11.66
79228;BMP280;68658;46.174;11.254;2023-05-10T11:42:39;92232.31;;;11.82
79228;BMP280;68658;46.174;11.254;2023-05-10T11:45:06;92233.75;;;11.65
79228;BMP280;68658;46.174;11.254;2023-05-10T11:47:31;92227.47;;;11.68
79228;BMP280;68658;46.174;11.254;2023-05-10T11:49:57;92226.59;;;11.60
79228;BMP280;68658;46.174;11.254;2023-05-10T11:52:23;92226.06;;;11.43
79228;BMP280;68658;46.174;11.254;2023-05-10T11:54:53;92239.81;;;11.36
79228;BMP280;68658;46.174;11.254;2023-05-10T11:57:19;92240.69;;;11.44
79228;BMP280;68658;46.174;11.254;2023-05-10T11:59:53;92230.34;;;11.46
79228;BMP280;68658;46.174;11.254;2023-05-10T12:02:20;92241.97;;;11.38
79228;BMP280;68658;46.174;11.254;2023-05-10T12:04:46;92234.53;;;11.36
79228;BMP280;68658;46.174;11.254;2023-05-10T12:07:12;92243.56;;;11.46
79228;BMP280;68658;46.174;11.254;2023-05-10T12:09:43;92248.84;;;11.46
79228;BMP280;68658;46.174;11.254;2023-05-10T12:12:08;92240.00;;;11.20
79228;BMP280;68658;46.174;11.254;2023-05-10T12:14:35;92244.47;;;11.06
79228;BMP280;68658;46.174;11.254;2023-05-10T12:17:01;92234.78;;;11.14
79228;BMP280;68658;46.174;11.254;2023-05-10T12:19:26;92246.50;;;11.19
79228;BMP280;68658;46.174;11.254;2023-05-10T12:21:52;92247.72;;;11.18
79228;BMP280;68658;46.174;11.254;2023-05-10T12:24:17;92244.88;;;11.34
79228;BMP280;68658;46.174;11.254;2023-05-10T12:26:45;92246.50;;;11.43
79228;BMP280;68658;46.174;11.254;2023-05-10T12:29:18;92243.63;;;11.41
79228;BMP280;68658;46.174;11.254;2023-05-10T12:31:58;92249.69;;;11.36
79228;BMP280;68658;46.174;11.254;2023-05-10T12:34:30;92247.00;;;11.17
79228;BMP280;68658;46.174;11.254;2023-05-10T12:36:59;92244.91;;;11.10
79228;BMP280;68658;46.174;11.254;2023-05-10T12:39:25;92241.59;;;11.04
79228;BMP280;68658;46.174;11.254;2023-05-10T12:41:52;92248.53;;;11.07
79228;BMP280;68658;46.174;11.254;2023-05-10T12:44:17;92252.50;;;11.19
79228;BMP280;68658;46.174;11.254;2023-05-10T12:46:43;92245.06;;;11.18
79228;BMP280;68658;46.174;11.254;2023-05-10T12:49:09;92250.06;;;11.21
79228;BMP280;68658;46.174;11.254;2023-05-10T12:51:34;92248.22;;;11.16
79228;BMP280;68658;46.174;11.254;2023-05-10T12:54:00;92247.19;;;11.19
79228;BMP280;68658;46.174;11.254;2023-05-10T12:56:25;92247.97;;;11.14
79228;BMP280;68658;46.174;11.254;2023-05-10T12:58:51;92252.22;;;10.99
79228;BMP280;68658;46.174;11.254;2023-05-10T13:01:19;92245.00;;;10.99
79228;BMP280;68658;46.174;11.254;2023-05-10T13:03:45;92248.63;;;10.96
79228;BMP280;68658;46.174;11.254;2023-05-10T13:06:11;92251.53;;;10.93
79228;BMP280;68658;46.174;11.254;2023-05-10T13:08:38;92245.28;;;10.96
79228;BMP280;68658;46.174;11.254;2023-05-10T13:11:05;92251.50;;;10.98
79228;BMP280;68658;46.174;11.254;2023-05-10T13:13:31;92252.50;;;10.95
79228;BMP280;68658;46.174;11.254;2023-05-10T13:15:56;92246.44;;;11.00
79228;BMP280;68658;46.174;11.254;2023-05-10T13:18:22;92250.06;;;10.97
79228;BMP280;68658;46.174;11.254;2023-05-10T13:20:49;92239.72;;;10.99
79228;BMP280;68658;46.174;11.254;2023-05-10T13:23:15;92248.59;;;11.02
79228;BMP280;68658;46.174;11.254;2023-05-10T13:25:41;92244.34;;;10.93
79228;BMP280;68658;46.174;11.254;2023-05-10T13:28:07;92249.13;;;10.95
79228;BMP280;68658;46.174;11.254;2023-05-10T13:30:33;92243.00;;;10.81
79228;BMP280;68658;46.174;11.254;2023-05-10T13:32:59;92253.72;;;10.94
79228;BMP280;68658;46.174;11.254;2023-05-10T13:35:25;92238.78;;;10.97
79228;BMP280;68658;46.174;11.254;2023-05-10T13:37:54;92252.44;;;11.01
79228;BMP280;68658;46.174;11.254;2023-05-10T13:40:23;92253.63;;;11.00
79228;BMP280;68658;46.174;11.254;2023-05-10T13:42:48;92234.44;;;10.99
79228;BMP280;68658;46.174;11.254;2023-05-10T13:45:15;92247.97;;;10.90
79228;BMP280;68658;46.174;11.254;2023-05-10T13:47:41;92246.53;;;10.89
79228;BMP280;68658;46.174;11.254;2023-05-10T13:50:07;92250.50;;;10.77
79228;BMP280;68658;46.174;11.254;2023-05-10T13:52:33;92242.25;;;10.86
79228;BMP280;68658;46.174;11.254;2023-05-10T13:54:59;92241.06;;;10.87
79228;BMP280;68658;46.174;11.254;2023-05-10T13:57:26;92238.84;;;10.91
79228;BMP280;68658;46.174;11.254;2023-05-10T13:59:55;92234.69;;;10.72
79228;BMP280;68658;46.174;11.254;2023-05-10T14:02:23;92244.66;;;10.84
79228;BMP280;68658;46.174;11.254;2023-05-10T14:04:50;92243.00;;;10.81
79228;BMP280;68658;46.174;11.254;2023-05-10T14:07:15;92241.25;;;10.89
79228;BMP280;68658;46.174;11.254;2023-05-10T14:09:42;92243.34;;;10.73
79228;BMP280;68658;46.174;11.254;2023-05-10T14:12:08;92246.16;;;10.80
79228;BMP280;68658;46.174;11.254;2023-05-10T14:14:34;92247.63;;;10.76
79228;BMP280;68658;46.174;11.254;2023-05-10T14:17:01;92235.09;;;10.81
79228;BMP280;68658;46.174;11.254;2023-05-10T14:19:26;92237.41;;;10.90
79228;BMP280;68658;46.174;11.254;2023-05-10T14:21:53;92242.53;;;10.83
79228;BMP280;68658;46.174;11.254;2023-05-10T14:24:19;92239.28;;;10.72
79228;BMP280;68658;46.174;11.254;2023-05-10T14:26:44;92238.06;;;10.73
79228;BMP280;68658;46.174;11.254;2023-05-10T14:29:10;92230.06;;;10.78
79228;BMP280;68658;46.174;11.254;2023-05-10T14:31:36;92233.94;;;10.77